Aérodrome :
LOGIN :

S'inscrire | Disclaimer

   EN    FR    IT 

 










Légende :    VFR   VFR Marginal   IFR   IFR Intensif   IFR Très Intensif
Visi : 
Plafond : 
>= 8 km
>= 3000ft
5 à 8 km
1000 à 3000 ft
1500m à 5 km
500 à 1000 ft
800 à 1500m
200 à 500 ft
< 800m
< 200 ft
Symboles :   Orages  Brouillard  Fortes neiges  Fortes précipitations  Vent > 20 kt
SIGMETs :   Divers  Orages  Givrage  Turbulence  Onde Orograph.  Cendres Volcan.






- Altitude de l'aérodrome : 74 ft
- Code IATA : EIN


EHEH - Eindhoven

DERNIER METAR :
  • 270055Z AUTO 33001KT 9999 OVC310 11/09 Q1034 BLU

METARs EXPIRÉS :
  • 270025Z AUTO 33001KT 9999 OVC320 12/09 Q1034 BLU
  • 262355Z AUTO 28001KT 9999 OVC320 13/10 Q1034 BLU
  • 262325Z AUTO 31002KT 9999 OVC330 13/09 Q1034 BLU
  • 262255Z AUTO 33002KT 9999 OVC350 14/10 Q1034 BLU
  • 262225Z AUTO VRB02KT 9999 FEW370 15/10 Q1034 BLU

TAF TAF EHEH
Valide du 27 à 00h jusqu'au 28 à 06h UTC


262322Z 2700/2806 VRB02KT CAVOK
PROB30 2703/2706 4000 BR MIFG
BECMG 2708/2710 33007KT FEW035
TEMPO 2712/2718 33010G20KT



MET'MAP, la Météo Aéronautique d'un coup d'oeil ! - Copyright ORBIFLY Décembre 2007 - Disclaimer

ORBIFLY MET'MAP TEAM :

Programmation & Développement : Alexandra Zaïnal
Sur une idée originale de : Baudouin d'Aumeries
Assistance à la programmation : Marc-Olivier Méhu
Soutien technique & logistique : Manuel Goepfert

Contact : metmap@orbifly.com




SOURCES & CREDITS :

   NOAA